Terminal Aerodrome Forecast
Issued by NWS

Home | Current Version | Previous Version | Text Only | Print | Product List | Glossary On
Versions: 1 2 3 4 5 6 7 8 9 10 11 12 13 14 15 16 17 18 19 20 21 22 23 24
383
FTUS41 KCAR 060520
TAFFVE
TAF
KFVE 060520Z 0606/0706 32008KT P6SM SKC
     FM061600 22006KT P6SM BKN040
     FM062200 17008KT P6SM -SN OVC025
     FM070200 19010KT 3SM -SN BR OVC015=

USA.gov is the U.S. government's official web portal to all federal, state and local government web resources and services.